createdAt,value
2018-07-27T00:00:54.339Z,4.50
2018-07-27T00:01:54.369Z,5.20
2018-07-27T00:02:54.396Z,4.50
2018-07-27T00:03:54.425Z,4.30
2018-07-27T00:04:54.449Z,4.30
2018-07-27T00:05:54.478Z,4.60
2018-07-27T00:06:54.505Z,4.70
2018-07-27T00:07:54.535Z,4.70
2018-07-27T00:08:54.563Z,4.50
2018-07-27T00:09:54.591Z,4.90
2018-07-27T00:10:54.617Z,4.70
2018-07-27T00:11:54.641Z,4.50
2018-07-27T00:12:54.673Z,5.00
2018-07-27T00:13:54.701Z,5.00
2018-07-27T00:14:54.727Z,4.30
2018-07-27T00:15:54.762Z,4.20
2018-07-27T00:16:54.784Z,4.60
2018-07-27T00:17:54.811Z,4.30
2018-07-27T00:18:54.838Z,5.50
2018-07-27T00:19:54.866Z,4.70
2018-07-27T00:20:54.894Z,4.40
2018-07-27T00:21:54.922Z,4.50
2018-07-27T00:22:54.948Z,4.80
2018-07-27T00:23:54.977Z,4.60
2018-07-27T00:24:55.008Z,4.80
2018-07-27T00:25:55.029Z,3.80
2018-07-27T00:26:55.060Z,4.50
2018-07-27T00:27:55.086Z,4.50
2018-07-27T00:28:55.114Z,4.60
2018-07-27T00:29:55.491Z,4.10
2018-07-27T00:30:55.172Z,4.10
2018-07-27T00:31:55.193Z,5.40
2018-07-27T00:32:55.224Z,5.70
2018-07-27T00:33:55.249Z,4.30
2018-07-27T00:34:55.277Z,4.40
2018-07-27T00:35:55.303Z,4.30
2018-07-27T00:36:55.331Z,4.20
2018-07-27T00:37:55.359Z,4.10
2018-07-27T00:38:55.387Z,3.90
2018-07-27T00:39:55.417Z,4.80
2018-07-27T00:40:55.441Z,4.20
2018-07-27T00:41:55.479Z,4.80
2018-07-27T00:42:55.496Z,4.70
2018-07-27T00:43:55.526Z,4.50
2018-07-27T00:44:55.550Z,4.40
2018-07-27T00:45:55.578Z,4.10
2018-07-27T00:46:55.606Z,4.30
2018-07-27T00:47:55.640Z,4.00
2018-07-27T00:48:55.661Z,4.40
2018-07-27T00:49:55.690Z,4.20
2018-07-27T00:50:55.716Z,4.70
2018-07-27T00:51:55.745Z,4.10
2018-07-27T00:52:55.771Z,3.90
2018-07-27T00:53:55.799Z,4.10
2018-07-27T00:54:55.825Z,4.20
2018-07-27T00:55:55.852Z,4.50
2018-07-27T00:56:55.883Z,4.60
2018-07-27T00:57:55.910Z,5.00
2018-07-27T00:58:55.936Z,4.70
2018-07-27T00:59:55.963Z,4.40
2018-07-27T01:00:55.988Z,4.20
2018-07-27T01:01:56.017Z,5.10
2018-07-27T01:02:56.048Z,4.70
2018-07-27T01:03:56.073Z,4.60
2018-07-27T01:04:56.098Z,5.10
2018-07-27T01:05:56.129Z,5.20
2018-07-27T01:06:56.153Z,4.30
2018-07-27T01:07:56.182Z,4.40
2018-07-27T01:08:56.209Z,4.70
2018-07-27T01:09:56.239Z,5.00
2018-07-27T01:10:56.265Z,4.30
2018-07-27T01:11:56.290Z,4.40
2018-07-27T01:12:56.319Z,4.60
2018-07-27T01:13:56.346Z,4.70
2018-07-27T01:14:56.370Z,4.50
2018-07-27T01:15:56.400Z,4.40
2018-07-27T01:16:56.428Z,4.50
2018-07-27T01:17:56.462Z,4.90
2018-07-27T01:18:56.481Z,4.60
2018-07-27T01:19:56.506Z,4.30
2018-07-27T01:20:56.535Z,4.30
2018-07-27T01:21:56.564Z,4.10
2018-07-27T01:22:56.591Z,4.50
2018-07-27T01:23:56.615Z,4.10
2018-07-27T01:24:56.642Z,4.40
2018-07-27T01:25:56.674Z,4.40
2018-07-27T01:26:56.698Z,4.30
2018-07-27T01:27:56.727Z,4.50
2018-07-27T01:28:56.751Z,5.00
2018-07-27T01:29:57.283Z,4.40
2018-07-27T01:30:56.807Z,4.30
2018-07-27T01:31:56.839Z,4.60
2018-07-27T01:32:56.863Z,5.00
2018-07-27T01:33:56.888Z,4.50
2018-07-27T01:34:56.915Z,4.80
2018-07-27T01:35:56.944Z,5.10
2018-07-27T01:36:56.971Z,4.40
2018-07-27T01:37:56.999Z,4.30
2018-07-27T01:38:57.024Z,4.40
2018-07-27T01:39:57.050Z,4.80
2018-07-27T01:40:57.079Z,5.10
2018-07-27T01:41:57.108Z,4.80
2018-07-27T01:42:57.134Z,5.00
2018-07-27T01:43:57.158Z,5.70
2018-07-27T01:44:57.186Z,4.90
2018-07-27T01:45:57.214Z,4.00
2018-07-27T01:46:57.247Z,4.20
2018-07-27T01:47:57.268Z,5.10
2018-07-27T01:48:57.295Z,5.30
2018-07-27T01:49:57.323Z,4.90
2018-07-27T01:50:57.411Z,4.90
2018-07-27T01:51:57.375Z,5.20
2018-07-27T01:52:57.405Z,4.40
2018-07-27T01:53:57.430Z,5.40
2018-07-27T01:54:57.466Z,4.60
2018-07-27T01:55:57.486Z,5.00
2018-07-27T01:56:57.510Z,4.50
2018-07-27T01:57:57.540Z,4.90
2018-07-27T01:58:57.567Z,4.90
2018-07-27T01:59:57.591Z,4.70
2018-07-27T02:00:57.624Z,4.80
2018-07-27T02:01:57.646Z,4.50
2018-07-27T02:02:57.673Z,4.60
2018-07-27T02:03:57.702Z,4.70
2018-07-27T02:04:57.726Z,4.90
2018-07-27T02:05:57.793Z,4.80
2018-07-27T02:06:57.783Z,4.90
2018-07-27T02:07:57.807Z,4.30
2018-07-27T02:08:57.834Z,5.00
2018-07-27T02:09:57.861Z,4.90
2018-07-27T02:10:57.890Z,4.80
2018-07-27T02:11:57.917Z,5.00
2018-07-27T02:12:58.004Z,5.20
2018-07-27T02:13:57.969Z,4.80
2018-07-27T02:14:57.996Z,5.00
2018-07-27T02:15:58.023Z,4.90
2018-07-27T02:16:58.052Z,4.60
2018-07-27T02:17:58.076Z,4.80
2018-07-27T02:18:58.103Z,4.60
2018-07-27T02:19:58.135Z,5.00
2018-07-27T02:20:58.157Z,4.90
2018-07-27T02:21:58.188Z,4.40
2018-07-27T02:22:58.211Z,5.00
2018-07-27T02:23:58.240Z,4.50
2018-07-27T02:24:58.268Z,4.90
2018-07-27T02:25:58.293Z,5.20
2018-07-27T02:26:58.319Z,4.60
2018-07-27T02:27:58.345Z,4.40
2018-07-27T02:28:58.375Z,5.30
2018-07-27T02:29:59.303Z,5.20
2018-07-27T02:30:58.428Z,5.60
2018-07-27T02:31:58.455Z,4.80
2018-07-27T02:32:58.480Z,5.70
2018-07-27T02:33:58.507Z,5.00
2018-07-27T02:34:58.545Z,5.10
2018-07-27T02:35:58.560Z,4.60
2018-07-27T02:36:58.588Z,4.90
2018-07-27T02:37:58.616Z,5.00
2018-07-27T02:38:58.644Z,4.90
2018-07-27T02:39:58.700Z,5.00
2018-07-27T02:40:58.698Z,5.00
2018-07-27T02:41:58.723Z,4.90
2018-07-27T02:42:58.748Z,4.40
2018-07-27T02:43:58.777Z,4.80
2018-07-27T02:44:58.801Z,5.80
2018-07-27T02:45:58.832Z,5.10
2018-07-27T02:46:58.854Z,5.10
2018-07-27T02:47:58.883Z,5.20
2018-07-27T02:48:58.912Z,5.60
2018-07-27T02:49:58.936Z,5.70
2018-07-27T02:50:58.963Z,5.40
2018-07-27T02:51:58.989Z,4.90
2018-07-27T02:52:59.041Z,5.20
2018-07-27T02:53:59.044Z,5.20
2018-07-27T02:54:59.072Z,5.40
2018-07-27T02:55:59.096Z,5.30
2018-07-27T02:56:59.123Z,5.20
2018-07-27T02:57:59.153Z,5.10
2018-07-27T02:58:59.179Z,5.10
2018-07-27T02:59:59.202Z,4.70
2018-07-27T03:00:59.229Z,5.70
2018-07-27T03:01:59.259Z,4.80
2018-07-27T03:02:59.285Z,5.60
2018-07-27T03:03:59.313Z,5.10
2018-07-27T03:04:59.338Z,5.90
2018-07-27T03:05:59.366Z,5.60
2018-07-27T03:06:59.390Z,5.50
2018-07-27T03:07:59.416Z,5.40
2018-07-27T03:08:59.445Z,5.70
2018-07-27T03:09:59.482Z,5.60
2018-07-27T03:10:59.498Z,6.20
2018-07-27T03:11:59.522Z,5.00
2018-07-27T03:12:59.550Z,5.30
2018-07-27T03:13:59.576Z,5.50
2018-07-27T03:14:59.607Z,5.90
2018-07-27T03:15:59.644Z,5.40
2018-07-27T03:16:59.657Z,5.50
2018-07-27T03:17:59.685Z,5.50
2018-07-27T03:18:59.711Z,6.00
2018-07-27T03:19:59.742Z,5.30
2018-07-27T03:20:59.762Z,5.40
2018-07-27T03:21:59.788Z,5.80
2018-07-27T03:22:59.818Z,5.80
2018-07-27T03:23:59.841Z,6.00
2018-07-27T03:24:59.868Z,5.80
2018-07-27T03:25:59.896Z,5.60
2018-07-27T03:26:59.923Z,6.10
2018-07-27T03:27:59.946Z,5.80
2018-07-27T03:28:59.975Z,5.40
2018-07-27T03:30:00.001Z,5.80
2018-07-27T03:31:00.027Z,5.40
2018-07-27T03:32:00.055Z,5.30
2018-07-27T03:33:00.080Z,6.10
2018-07-27T03:34:00.108Z,6.60
2018-07-27T03:35:00.233Z,5.50
2018-07-27T03:36:00.161Z,5.40
2018-07-27T03:37:00.186Z,5.90
2018-07-27T03:38:00.314Z,5.50
2018-07-27T03:39:00.246Z,5.40
2018-07-27T03:40:00.266Z,5.40
2018-07-27T03:41:00.290Z,5.20
2018-07-27T03:42:00.363Z,5.60
2018-07-27T03:43:00.344Z,5.30
2018-07-27T03:44:00.372Z,6.10
2018-07-27T03:45:00.395Z,5.60
2018-07-27T03:46:00.421Z,5.10
2018-07-27T03:47:00.451Z,5.70
2018-07-27T03:48:00.474Z,6.00
2018-07-27T03:49:00.504Z,5.60
2018-07-27T03:50:00.530Z,5.50
2018-07-27T03:51:00.555Z,5.60
2018-07-27T03:52:00.579Z,5.30
2018-07-27T03:53:00.611Z,5.40
2018-07-27T03:54:00.631Z,5.70
2018-07-27T03:55:00.658Z,5.60
2018-07-27T03:56:00.687Z,5.70
2018-07-27T03:57:00.714Z,5.60
2018-07-27T03:58:00.742Z,5.10
2018-07-27T03:59:00.764Z,5.70
2018-07-27T04:00:00.792Z,4.70
2018-07-27T04:01:00.818Z,5.90
2018-07-27T04:02:00.847Z,6.00
2018-07-27T04:03:00.872Z,5.70
2018-07-27T04:04:00.894Z,5.40
2018-07-27T04:05:00.924Z,5.90
2018-07-27T04:06:00.947Z,5.80
2018-07-27T04:07:00.976Z,5.10
2018-07-27T04:08:01.004Z,5.30
2018-07-27T04:09:01.026Z,5.60
2018-07-27T04:10:01.056Z,4.80
2018-07-27T04:11:01.082Z,5.60
2018-07-27T04:12:01.105Z,5.10
2018-07-27T04:13:01.132Z,5.50
2018-07-27T04:14:01.160Z,5.20
2018-07-27T04:15:01.214Z,5.10
2018-07-27T04:16:01.213Z,5.20
2018-07-27T04:17:01.237Z,5.70
2018-07-27T04:18:01.267Z,5.40
2018-07-27T04:19:01.293Z,5.10
2018-07-27T04:20:01.315Z,5.50
2018-07-27T04:21:01.341Z,6.10
2018-07-27T04:22:01.368Z,5.40
2018-07-27T04:23:01.396Z,5.20
2018-07-27T04:24:01.419Z,5.80
2018-07-27T04:25:01.449Z,5.30
2018-07-27T04:26:01.474Z,5.80
2018-07-27T04:27:01.500Z,5.40
2018-07-27T04:28:01.527Z,5.10
2018-07-27T04:29:01.556Z,5.50
2018-07-27T04:30:01.578Z,5.30
2018-07-27T04:31:01.604Z,5.70
2018-07-27T04:32:01.630Z,6.00
2018-07-27T04:33:01.659Z,5.00
2018-07-27T04:34:01.681Z,5.70
2018-07-27T04:35:01.710Z,5.20
2018-07-27T04:36:01.734Z,5.40
2018-07-27T04:37:01.760Z,6.00
2018-07-27T04:38:01.786Z,7.60
2018-07-27T04:39:01.813Z,13.20
2018-07-27T04:40:01.841Z,10.10
2018-07-27T04:41:01.867Z,6.70
2018-07-27T04:42:01.893Z,5.40
2018-07-27T04:43:01.959Z,5.60
2018-07-27T04:44:01.946Z,6.20
2018-07-27T04:45:01.973Z,5.60
2018-07-27T04:46:01.996Z,6.50
2018-07-27T04:47:02.023Z,5.40
2018-07-27T04:48:02.048Z,5.70
2018-07-27T04:49:02.075Z,5.20
2018-07-27T04:50:02.101Z,6.10
2018-07-27T04:51:02.133Z,5.80
2018-07-27T04:52:02.156Z,5.50
2018-07-27T04:53:02.179Z,5.80
2018-07-27T04:54:02.206Z,5.70
2018-07-27T04:55:02.237Z,6.70
2018-07-27T04:56:02.258Z,6.50
2018-07-27T04:57:02.288Z,6.50
2018-07-27T04:58:02.314Z,6.50
2018-07-27T04:59:02.338Z,6.40
2018-07-27T05:00:02.364Z,6.70
2018-07-27T05:01:02.391Z,6.30
2018-07-27T05:02:02.422Z,6.20
2018-07-27T05:03:02.446Z,7.70
2018-07-27T05:04:02.474Z,5.70
2018-07-27T05:05:02.498Z,5.60
2018-07-27T05:06:02.527Z,5.10
2018-07-27T05:07:02.553Z,6.50
2018-07-27T05:08:02.578Z,6.70
2018-07-27T05:09:02.609Z,6.20
2018-07-27T05:10:02.632Z,5.80
2018-07-27T05:11:02.659Z,5.70
2018-07-27T05:12:02.686Z,6.50
2018-07-27T05:13:02.712Z,6.20
2018-07-27T05:14:02.740Z,6.10
2018-07-27T05:15:02.764Z,6.70
2018-07-27T05:16:02.789Z,6.60
2018-07-27T05:17:02.819Z,6.50
2018-07-27T05:18:02.846Z,6.20
2018-07-27T05:19:02.874Z,6.00
2018-07-27T05:20:02.896Z,6.80
2018-07-27T05:21:02.926Z,6.80
2018-07-27T05:22:02.951Z,6.50
2018-07-27T05:23:02.981Z,9.20
2018-07-27T05:24:03.007Z,6.40
2018-07-27T05:25:03.034Z,6.10
2018-07-27T05:26:03.062Z,11.10
2018-07-27T05:27:03.088Z,7.00
2018-07-27T05:28:03.111Z,6.80
2018-07-27T05:29:03.138Z,7.20
2018-07-27T05:30:03.168Z,6.20
2018-07-27T05:31:03.196Z,6.50
2018-07-27T05:32:03.219Z,6.00
2018-07-27T05:33:03.250Z,6.10
2018-07-27T05:34:03.276Z,6.80
2018-07-27T05:35:03.303Z,6.00
2018-07-27T05:36:03.328Z,6.40
2018-07-27T05:37:03.355Z,5.30
2018-07-27T05:38:03.384Z,6.00
2018-07-27T05:39:03.411Z,6.70
2018-07-27T05:40:03.438Z,6.00
2018-07-27T05:41:03.464Z,5.90
2018-07-27T05:42:03.493Z,7.20
2018-07-27T05:43:03.522Z,6.40
2018-07-27T05:44:03.545Z,5.70
2018-07-27T05:45:03.575Z,6.30
2018-07-27T05:46:03.600Z,6.00
2018-07-27T05:47:03.690Z,6.70
2018-07-27T05:48:03.655Z,5.30
2018-07-27T05:49:03.682Z,6.70
2018-07-27T05:50:03.710Z,6.40
2018-07-27T05:51:03.740Z,6.00
2018-07-27T05:52:03.765Z,6.60
2018-07-27T05:53:03.791Z,6.30
2018-07-27T05:54:03.818Z,6.70
2018-07-27T05:55:03.850Z,6.20
2018-07-27T05:56:03.877Z,6.70
2018-07-27T05:57:03.907Z,6.70
2018-07-27T05:58:03.932Z,6.60
2018-07-27T05:59:03.960Z,6.40
2018-07-27T06:00:03.985Z,6.10
2018-07-27T06:01:04.035Z,6.20
2018-07-27T06:02:04.048Z,6.30
2018-07-27T06:03:04.213Z,6.40
2018-07-27T06:04:04.100Z,6.10
2018-07-27T06:05:04.276Z,6.90
2018-07-27T06:06:04.156Z,6.70
2018-07-27T06:07:04.181Z,8.80
2018-07-27T06:08:04.559Z,8.00
2018-07-27T06:09:04.587Z,7.10
2018-07-27T06:10:04.267Z,7.10
2018-07-27T06:11:04.296Z,6.40
2018-07-27T06:12:04.321Z,7.20
2018-07-27T06:13:04.352Z,6.50
2018-07-27T06:14:04.381Z,6.60
2018-07-27T06:15:04.407Z,7.10
2018-07-27T06:16:04.435Z,7.80
2018-07-27T06:17:04.464Z,7.70
2018-07-27T06:18:04.511Z,6.50
2018-07-27T06:19:04.527Z,5.90
2018-07-27T06:20:04.555Z,6.10
2018-07-27T06:21:04.595Z,6.80
2018-07-27T06:22:04.607Z,6.30
2018-07-27T06:23:04.638Z,5.90
2018-07-27T06:24:04.753Z,6.60
2018-07-27T06:25:04.695Z,6.80
2018-07-27T06:26:04.724Z,6.40
2018-07-27T06:27:04.750Z,6.20
2018-07-27T06:28:04.785Z,6.00
2018-07-27T06:29:04.807Z,6.20
2018-07-27T06:30:04.960Z,5.80
2018-07-27T06:31:04.868Z,6.60
2018-07-27T06:32:04.893Z,6.70
2018-07-27T06:33:04.921Z,6.80
2018-07-27T06:34:04.954Z,6.10
2018-07-27T06:35:04.982Z,6.80
2018-07-27T06:36:05.011Z,6.20
2018-07-27T06:37:05.040Z,6.30
2018-07-27T06:38:05.069Z,7.00
2018-07-27T06:39:05.142Z,6.40
2018-07-27T06:40:05.124Z,6.80
2018-07-27T06:41:05.155Z,6.40
2018-07-27T06:42:05.189Z,6.50
2018-07-27T06:43:05.211Z,7.70
2018-07-27T06:44:05.238Z,6.30
2018-07-27T06:45:05.286Z,7.20
2018-07-27T06:46:05.297Z,7.60
2018-07-27T06:47:05.325Z,7.60
2018-07-27T06:48:05.353Z,6.80
2018-07-27T06:49:05.382Z,6.80
2018-07-27T06:50:05.411Z,7.30
2018-07-27T06:51:05.443Z,7.00
2018-07-27T06:52:05.468Z,6.00
2018-07-27T06:53:05.496Z,7.00
2018-07-27T06:54:05.527Z,6.40
2018-07-27T06:55:05.557Z,6.30
2018-07-27T06:56:05.583Z,6.50
2018-07-27T06:57:05.613Z,7.90
2018-07-27T06:58:05.643Z,6.30
2018-07-27T06:59:05.671Z,6.00
2018-07-27T07:00:05.700Z,5.90
2018-07-27T07:01:05.729Z,6.50
2018-07-27T07:02:05.754Z,6.40
2018-07-27T07:03:05.783Z,7.20
2018-07-27T07:04:05.811Z,6.90
2018-07-27T07:05:05.843Z,7.10
2018-07-27T07:06:05.872Z,7.20
2018-07-27T07:07:05.906Z,6.80
2018-07-27T07:08:05.928Z,6.30
2018-07-27T07:09:06.012Z,5.90
2018-07-27T07:10:06.236Z,6.10
2018-07-27T07:11:06.012Z,6.20
2018-07-27T07:12:06.040Z,6.40
2018-07-27T07:13:06.070Z,7.20
2018-07-27T07:14:06.099Z,6.70
2018-07-27T07:15:06.130Z,6.50
2018-07-27T07:16:06.154Z,6.20
2018-07-27T07:17:06.184Z,6.00
2018-07-27T07:18:06.212Z,6.00
2018-07-27T07:19:06.242Z,6.40
2018-07-27T07:20:06.273Z,6.40
2018-07-27T07:21:06.303Z,6.00
2018-07-27T07:22:06.360Z,5.90
2018-07-27T07:23:06.358Z,6.80
2018-07-27T07:24:06.689Z,7.50
2018-07-27T07:25:06.502Z,6.80
2018-07-27T07:26:06.736Z,6.40
2018-07-27T07:27:06.480Z,6.40
2018-07-27T07:28:06.504Z,5.90
2018-07-27T07:29:06.532Z,5.40
2018-07-27T07:30:06.561Z,6.40
2018-07-27T07:31:06.593Z,7.10
2018-07-27T07:32:06.623Z,6.50
2018-07-27T07:33:06.655Z,6.90
2018-07-27T07:34:06.680Z,5.70
2018-07-27T07:35:06.713Z,6.00
2018-07-27T07:36:06.740Z,6.30
2018-07-27T07:37:06.771Z,6.60
2018-07-27T07:38:07.353Z,6.10
2018-07-27T07:39:06.838Z,7.10
2018-07-27T07:40:06.862Z,7.40
2018-07-27T07:41:06.895Z,6.90
2018-07-27T07:42:06.926Z,6.70
2018-07-27T07:43:06.957Z,6.30
2018-07-27T07:44:06.987Z,6.20
2018-07-27T07:45:07.054Z,6.30
2018-07-27T07:46:07.048Z,6.50
2018-07-27T07:47:07.080Z,6.90
2018-07-27T07:48:07.111Z,6.50
2018-07-27T07:49:07.139Z,6.20
2018-07-27T07:50:07.169Z,6.20
2018-07-27T07:51:07.203Z,6.00
2018-07-27T07:52:07.230Z,6.60
2018-07-27T07:53:07.261Z,6.40
2018-07-27T07:54:07.295Z,6.40
2018-07-27T07:55:07.326Z,6.00
2018-07-27T07:56:07.362Z,6.50
2018-07-27T07:57:07.384Z,6.10
2018-07-27T07:58:07.418Z,6.30
2018-07-27T07:59:07.447Z,6.10
2018-07-27T08:00:07.479Z,5.90
2018-07-27T08:01:07.507Z,6.20
2018-07-27T08:02:07.542Z,6.10
2018-07-27T08:03:07.571Z,7.60
2018-07-27T08:04:07.598Z,7.30
2018-07-27T08:05:07.631Z,7.00
2018-07-27T08:06:07.660Z,6.90
2018-07-27T08:07:07.692Z,7.20
2018-07-27T08:08:07.721Z,6.10
2018-07-27T08:09:07.752Z,6.30
2018-07-27T08:10:07.789Z,7.00
2018-07-27T08:11:07.827Z,5.90
2018-07-27T08:12:07.843Z,6.10
2018-07-27T08:13:07.878Z,6.50
2018-07-27T08:14:07.906Z,6.10
2018-07-27T08:15:07.937Z,6.50
2018-07-27T08:16:07.965Z,5.80
2018-07-27T08:17:07.998Z,5.60
2018-07-27T08:18:08.029Z,6.10
2018-07-27T08:19:08.056Z,5.90
2018-07-27T08:20:08.090Z,5.60
2018-07-27T08:21:08.122Z,6.30
2018-07-27T08:22:08.151Z,6.20
2018-07-27T08:23:08.183Z,7.00
2018-07-27T08:24:08.214Z,6.20
2018-07-27T08:25:08.244Z,6.70
2018-07-27T08:26:08.276Z,6.20
2018-07-27T08:27:08.306Z,6.30
2018-07-27T08:28:08.332Z,7.20
2018-07-27T08:29:08.365Z,6.30
2018-07-27T08:30:08.393Z,6.10
2018-07-27T08:31:08.878Z,5.80
2018-07-27T08:32:08.457Z,6.30
2018-07-27T08:33:08.484Z,5.70
2018-07-27T08:34:08.515Z,5.70
2018-07-27T08:35:08.546Z,6.80
2018-07-27T08:36:08.576Z,6.70
2018-07-27T08:37:08.606Z,6.00
2018-07-27T08:38:08.637Z,5.60
2018-07-27T08:39:08.669Z,6.20
2018-07-27T08:40:08.700Z,6.40
2018-07-27T08:41:08.732Z,6.00
2018-07-27T08:42:09.111Z,6.10
2018-07-27T08:43:08.793Z,7.10
2018-07-27T08:44:08.823Z,5.80
2018-07-27T08:45:08.854Z,6.00
2018-07-27T08:46:08.882Z,6.60
2018-07-27T08:47:08.917Z,5.60
2018-07-27T08:48:08.945Z,5.50
2018-07-27T08:49:08.976Z,6.10
2018-07-27T08:50:09.007Z,6.00
2018-07-27T08:51:09.037Z,6.00
2018-07-27T08:52:09.067Z,5.90
2018-07-27T08:53:09.098Z,5.90
2018-07-27T08:54:09.126Z,6.70
2018-07-27T08:55:09.157Z,7.10
2018-07-27T08:56:09.188Z,6.40
2018-07-27T08:57:09.219Z,6.80
2018-07-27T08:58:09.249Z,6.60
2018-07-27T08:59:09.279Z,5.90
2018-07-27T09:00:09.309Z,6.30
2018-07-27T09:01:09.343Z,6.60
2018-07-27T09:02:09.373Z,6.50
2018-07-27T09:03:09.401Z,6.50
2018-07-27T09:04:09.436Z,6.60
2018-07-27T09:05:09.470Z,6.30
2018-07-27T09:06:09.493Z,6.90
2018-07-27T09:07:09.524Z,6.40
2018-07-27T09:08:09.557Z,6.00
2018-07-27T09:09:09.588Z,6.30
2018-07-27T09:10:09.629Z,6.60
2018-07-27T09:11:09.900Z,6.70
2018-07-27T09:12:09.680Z,6.20
2018-07-27T09:13:09.708Z,6.10
2018-07-27T09:14:09.742Z,5.40
2018-07-27T09:15:09.772Z,6.00
2018-07-27T09:16:09.803Z,6.30
2018-07-27T09:17:09.835Z,5.20
2018-07-27T09:18:09.862Z,5.30
2018-07-27T09:19:10.146Z,6.10
2018-07-27T09:20:09.927Z,5.70
2018-07-27T09:21:10.041Z,5.10
2018-07-27T09:22:10.038Z,5.30
2018-07-27T09:23:10.020Z,14.40
2018-07-27T09:24:10.207Z,9.80
2018-07-27T09:25:10.541Z,7.90
2018-07-27T09:26:10.110Z,6.80
2018-07-27T09:27:10.143Z,7.90
2018-07-27T09:28:10.170Z,5.60
2018-07-27T09:29:10.201Z,5.40
2018-07-27T09:30:10.236Z,5.60
2018-07-27T09:31:10.267Z,5.50
2018-07-27T09:32:10.297Z,5.70
2018-07-27T09:33:10.329Z,4.90
2018-07-27T09:34:10.363Z,5.80
2018-07-27T09:35:10.401Z,5.50
2018-07-27T09:36:10.417Z,5.90
2018-07-27T09:37:10.448Z,6.00
2018-07-27T09:38:10.489Z,5.60
2018-07-27T09:39:10.513Z,5.10
2018-07-27T09:40:10.544Z,5.10
2018-07-27T09:41:10.571Z,4.80
2018-07-27T09:42:10.602Z,5.20
2018-07-27T09:43:10.635Z,4.50
2018-07-27T09:44:10.667Z,4.50
2018-07-27T09:45:10.696Z,4.10
2018-07-27T09:46:10.729Z,4.70
2018-07-27T09:47:10.756Z,5.60
2018-07-27T09:48:10.786Z,4.90
2018-07-27T09:49:10.820Z,5.00
2018-07-27T09:50:10.852Z,5.50
2018-07-27T09:51:10.881Z,5.20
2018-07-27T09:52:10.910Z,4.80
2018-07-27T09:53:10.944Z,5.20
2018-07-27T09:54:10.975Z,4.60
2018-07-27T09:55:11.004Z,5.70
2018-07-27T09:56:11.032Z,6.60
2018-07-27T09:57:11.067Z,6.00
2018-07-27T09:58:11.099Z,5.60
2018-07-27T09:59:11.130Z,5.00
2018-07-27T10:00:11.156Z,5.30
2018-07-27T10:01:11.188Z,5.20
2018-07-27T10:02:11.223Z,4.70
2018-07-27T10:03:11.250Z,4.60
2018-07-27T10:04:11.283Z,4.80
2018-07-27T10:05:11.312Z,5.90
2018-07-27T10:06:11.346Z,5.20
2018-07-27T10:07:11.375Z,5.20
2018-07-27T10:08:11.409Z,5.10
2018-07-27T10:09:11.439Z,5.50
2018-07-27T10:10:11.467Z,5.30
2018-07-27T10:11:11.499Z,5.20
2018-07-27T10:12:11.529Z,5.00
2018-07-27T10:13:11.561Z,5.20
2018-07-27T10:14:11.596Z,4.40
2018-07-27T10:15:11.626Z,5.40
2018-07-27T10:16:11.760Z,5.70
2018-07-27T10:17:11.686Z,4.80
2018-07-27T10:18:11.723Z,5.70
2018-07-27T10:19:11.751Z,5.60
2018-07-27T10:20:11.780Z,5.50
2018-07-27T10:21:11.813Z,7.00
2018-07-27T10:22:11.848Z,5.40
2018-07-27T10:23:11.873Z,6.70
2018-07-27T10:24:11.965Z,5.80
2018-07-27T10:25:11.938Z,4.40
2018-07-27T10:26:11.972Z,5.70
2018-07-27T10:27:11.998Z,4.80
2018-07-27T10:28:12.029Z,5.40
2018-07-27T10:29:12.060Z,5.00
2018-07-27T10:30:12.092Z,7.90
2018-07-27T10:31:12.151Z,6.40
2018-07-27T10:32:12.153Z,5.10
2018-07-27T10:33:12.539Z,5.50
2018-07-27T10:34:12.217Z,6.40
2018-07-27T10:35:12.249Z,5.60
2018-07-27T10:36:12.279Z,4.80
2018-07-27T10:37:12.313Z,4.90
2018-07-27T10:38:12.342Z,5.10
2018-07-27T10:39:12.378Z,4.80
2018-07-27T10:40:12.406Z,5.40
2018-07-27T10:41:12.490Z,5.00
2018-07-27T10:42:12.473Z,5.50
2018-07-27T10:43:12.501Z,5.40
2018-07-27T10:44:12.533Z,5.10
2018-07-27T10:45:12.561Z,4.70
2018-07-27T10:46:12.595Z,5.90
2018-07-27T10:47:12.624Z,4.70
2018-07-27T10:48:12.655Z,4.80
2018-07-27T10:49:12.687Z,5.10
2018-07-27T10:50:12.781Z,4.90
2018-07-27T10:51:12.749Z,4.40
2018-07-27T10:52:12.780Z,5.40
2018-07-27T10:53:12.815Z,4.60
2018-07-27T10:54:12.846Z,5.00
2018-07-27T10:55:12.881Z,4.90
2018-07-27T10:56:12.908Z,4.80
2018-07-27T10:57:12.939Z,9.50
2018-07-27T10:58:12.969Z,5.40
2018-07-27T10:59:13.000Z,4.10
2018-07-27T11:00:13.030Z,4.60
2018-07-27T11:01:13.065Z,4.90
2018-07-27T11:02:13.096Z,5.10
2018-07-27T11:03:13.129Z,4.70
2018-07-27T11:04:13.155Z,4.10
2018-07-27T11:05:13.195Z,4.50
2018-07-27T11:06:13.218Z,4.60
2018-07-27T11:07:13.249Z,4.30
2018-07-27T11:08:13.280Z,4.20
2018-07-27T11:09:13.314Z,3.70
2018-07-27T11:10:13.343Z,4.00
2018-07-27T11:11:13.377Z,4.00
2018-07-27T11:12:13.406Z,3.80
2018-07-27T11:13:13.436Z,4.70
2018-07-27T11:14:13.468Z,4.30
2018-07-27T11:15:13.543Z,4.80
2018-07-27T11:16:13.529Z,4.40
2018-07-27T11:17:13.620Z,4.50
2018-07-27T11:18:13.592Z,4.30
2018-07-27T11:19:13.622Z,4.40
2018-07-27T11:20:13.657Z,5.10
2018-07-27T11:21:13.685Z,4.40
2018-07-27T11:22:13.718Z,5.00
2018-07-27T11:23:13.750Z,4.80
2018-07-27T11:24:13.781Z,4.80
2018-07-27T11:25:13.812Z,4.20
2018-07-27T11:26:13.844Z,4.70
2018-07-27T11:27:13.873Z,4.40
2018-07-27T11:28:13.908Z,4.40
2018-07-27T11:29:13.934Z,4.00
2018-07-27T11:30:13.970Z,4.70
2018-07-27T11:31:14.001Z,4.60
2018-07-27T11:32:14.029Z,4.80
2018-07-27T11:33:14.060Z,4.30
2018-07-27T11:34:14.091Z,4.60
2018-07-27T11:35:14.123Z,4.40
2018-07-27T11:36:14.157Z,3.90
2018-07-27T11:37:14.227Z,4.50
2018-07-27T11:38:14.518Z,4.00
2018-07-27T11:39:14.248Z,3.90
2018-07-27T11:40:14.280Z,4.00
2018-07-27T11:41:14.310Z,4.20
2018-07-27T11:42:14.405Z,3.20
2018-07-27T11:43:14.377Z,3.90
2018-07-27T11:44:14.408Z,3.50
2018-07-27T11:45:14.438Z,3.40
2018-07-27T11:46:14.470Z,3.60
2018-07-27T11:47:14.499Z,3.70
2018-07-27T11:48:14.534Z,9.50
2018-07-27T11:49:14.567Z,7.60
2018-07-27T11:50:14.593Z,10.00
2018-07-27T11:51:14.625Z,5.10
2018-07-27T11:52:14.658Z,10.60
2018-07-27T11:53:14.691Z,5.10
2018-07-27T11:54:14.718Z,4.00
2018-07-27T11:55:14.753Z,3.20
2018-07-27T11:56:14.780Z,3.80
2018-07-27T11:57:14.813Z,4.00
2018-07-27T11:58:14.845Z,4.20
2018-07-27T11:59:14.884Z,3.80
2018-07-27T12:00:14.959Z,2.90
2018-07-27T12:01:14.938Z,3.40
2018-07-27T12:02:14.972Z,3.10
2018-07-27T12:03:15.006Z,3.40
2018-07-27T12:04:15.033Z,3.20
2018-07-27T12:05:15.069Z,3.10
2018-07-27T12:06:15.099Z,3.30
2018-07-27T12:07:15.130Z,3.60
2018-07-27T12:08:15.160Z,3.60
2018-07-27T12:09:15.191Z,3.00
2018-07-27T12:10:15.221Z,3.20
2018-07-27T12:11:15.253Z,3.60
2018-07-27T12:12:15.339Z,3.30
2018-07-27T12:13:15.316Z,3.30
2018-07-27T12:14:15.480Z,3.20
2018-07-27T12:15:15.588Z,3.70
2018-07-27T12:16:15.410Z,4.10
2018-07-27T12:17:15.442Z,3.80
2018-07-27T12:18:15.475Z,3.30
2018-07-27T12:19:15.508Z,3.10
2018-07-27T12:20:15.535Z,3.50
2018-07-27T12:21:15.705Z,3.50
2018-07-27T12:22:15.599Z,3.10
2018-07-27T12:23:15.632Z,3.90
2018-07-27T12:24:15.666Z,3.80
2018-07-27T12:25:15.694Z,3.80
2018-07-27T12:26:15.727Z,3.70
2018-07-27T12:27:15.760Z,3.70
2018-07-27T12:28:15.790Z,3.50
2018-07-27T12:29:15.822Z,3.00
2018-07-27T12:30:15.855Z,3.50
2018-07-27T12:31:15.885Z,3.40
2018-07-27T12:32:15.917Z,3.90
2018-07-27T12:33:15.948Z,3.30
2018-07-27T12:34:15.977Z,3.40
2018-07-27T12:35:16.010Z,3.90
2018-07-27T12:36:16.042Z,3.90
2018-07-27T12:37:16.072Z,4.10
2018-07-27T12:38:16.104Z,4.40
2018-07-27T12:39:16.136Z,4.00
2018-07-27T12:40:16.169Z,4.40
2018-07-27T12:41:16.199Z,4.20
2018-07-27T12:42:16.237Z,4.40
2018-07-27T12:43:16.262Z,4.00
2018-07-27T12:44:16.296Z,3.70
2018-07-27T12:45:16.325Z,3.60
2018-07-27T12:46:16.360Z,4.00
2018-07-27T12:47:16.388Z,3.90
2018-07-27T12:48:16.425Z,3.90
2018-07-27T12:49:16.451Z,4.00
2018-07-27T12:50:16.486Z,3.90
2018-07-27T12:51:16.557Z,3.70
2018-07-27T12:52:16.546Z,4.30
2018-07-27T12:53:16.582Z,3.90
2018-07-27T12:54:16.617Z,3.70
2018-07-27T12:55:16.694Z,3.90
2018-07-27T12:56:16.673Z,4.10
2018-07-27T12:57:16.703Z,3.60
2018-07-27T12:58:16.736Z,3.80
2018-07-27T12:59:16.818Z,3.50
2018-07-27T13:00:16.800Z,4.00
2018-07-27T13:01:16.832Z,3.50
2018-07-27T13:02:16.864Z,3.10
2018-07-27T13:03:16.946Z,3.60
2018-07-27T13:04:16.926Z,3.90
2018-07-27T13:05:16.996Z,3.10
2018-07-27T13:06:16.989Z,3.30
2018-07-27T13:07:17.018Z,4.00
2018-07-27T13:08:17.050Z,3.50
2018-07-27T13:09:17.086Z,3.60
2018-07-27T13:10:17.113Z,3.70
2018-07-27T13:11:17.145Z,3.50
2018-07-27T13:12:17.176Z,4.20
2018-07-27T13:13:17.272Z,4.30
2018-07-27T13:14:17.490Z,4.50
2018-07-27T13:15:17.675Z,4.30
2018-07-27T13:16:17.305Z,3.80
2018-07-27T13:17:17.334Z,4.50
2018-07-27T13:18:17.366Z,4.30
2018-07-27T13:19:17.400Z,3.70